sensor_id;sensor_type;location;lat;lon;timestamp;P1;durP1;ratioP1;P2;durP2;ratioP2
43154;SDS011;34212;51.018;13.586;2024-01-30T00:01:28;20.55;;;10.73;;
43154;SDS011;34212;51.018;13.586;2024-01-30T00:06:30;16.38;;;9.90;;
43154;SDS011;34212;51.018;13.586;2024-01-30T00:11:32;17.70;;;10.50;;
43154;SDS011;34212;51.018;13.586;2024-01-30T00:16:34;21.17;;;10.77;;
43154;SDS011;34212;51.018;13.586;2024-01-30T00:21:35;21.90;;;11.32;;
43154;SDS011;34212;51.018;13.586;2024-01-30T00:26:37;20.58;;;10.68;;
43154;SDS011;34212;51.018;13.586;2024-01-30T00:31:38;18.67;;;11.30;;
43154;SDS011;34212;51.018;13.586;2024-01-30T00:36:42;17.63;;;11.07;;
43154;SDS011;34212;51.018;13.586;2024-01-30T00:41:44;22.00;;;11.50;;
43154;SDS011;34212;51.018;13.586;2024-01-30T00:46:45;16.42;;;10.05;;
43154;SDS011;34212;51.018;13.586;2024-01-30T00:51:47;18.17;;;10.68;;
43154;SDS011;34212;51.018;13.586;2024-01-30T00:56:49;19.13;;;9.20;;
43154;SDS011;34212;51.018;13.586;2024-01-30T01:01:50;20.58;;;10.35;;
43154;SDS011;34212;51.018;13.586;2024-01-30T01:06:52;17.10;;;10.38;;
43154;SDS011;34212;51.018;13.586;2024-01-30T01:11:54;17.33;;;10.05;;
43154;SDS011;34212;51.018;13.586;2024-01-30T01:16:56;18.85;;;9.88;;
43154;SDS011;34212;51.018;13.586;2024-01-30T01:21:57;15.77;;;9.93;;
43154;SDS011;34212;51.018;13.586;2024-01-30T01:26:59;17.27;;;9.57;;
43154;SDS011;34212;51.018;13.586;2024-01-30T01:32:00;20.10;;;9.77;;
43154;SDS011;34212;51.018;13.586;2024-01-30T01:37:02;17.60;;;9.77;;
43154;SDS011;34212;51.018;13.586;2024-01-30T01:42:03;18.85;;;10.68;;
43154;SDS011;34212;51.018;13.586;2024-01-30T01:47:05;21.48;;;12.05;;
43154;SDS011;34212;51.018;13.586;2024-01-30T01:52:07;21.55;;;12.05;;
43154;SDS011;34212;51.018;13.586;2024-01-30T01:57:08;16.83;;;10.63;;
43154;SDS011;34212;51.018;13.586;2024-01-30T02:02:10;19.17;;;11.75;;
43154;SDS011;34212;51.018;13.586;2024-01-30T02:07:14;22.42;;;11.85;;
43154;SDS011;34212;51.018;13.586;2024-01-30T02:12:16;20.63;;;10.63;;
43154;SDS011;34212;51.018;13.586;2024-01-30T02:17:17;16.60;;;10.43;;
43154;SDS011;34212;51.018;13.586;2024-01-30T02:22:19;18.60;;;10.10;;
43154;SDS011;34212;51.018;13.586;2024-01-30T02:27:21;18.80;;;11.40;;
43154;SDS011;34212;51.018;13.586;2024-01-30T02:32:23;16.85;;;9.75;;
43154;SDS011;34212;51.018;13.586;2024-01-30T02:37:24;15.15;;;8.98;;
43154;SDS011;34212;51.018;13.586;2024-01-30T02:42:26;13.15;;;8.35;;
43154;SDS011;34212;51.018;13.586;2024-01-30T02:47:27;15.40;;;8.73;;
43154;SDS011;34212;51.018;13.586;2024-01-30T02:52:29;15.20;;;9.23;;
43154;SDS011;34212;51.018;13.586;2024-01-30T02:57:30;15.52;;;9.07;;
43154;SDS011;34212;51.018;13.586;2024-01-30T03:02:32;15.60;;;9.02;;
43154;SDS011;34212;51.018;13.586;2024-01-30T03:07:34;16.95;;;8.45;;
43154;SDS011;34212;51.018;13.586;2024-01-30T03:12:36;18.83;;;8.48;;
43154;SDS011;34212;51.018;13.586;2024-01-30T03:17:37;14.45;;;8.52;;
43154;SDS011;34212;51.018;13.586;2024-01-30T03:22:39;15.35;;;9.15;;
43154;SDS011;34212;51.018;13.586;2024-01-30T03:27:40;19.80;;;10.50;;
43154;SDS011;34212;51.018;13.586;2024-01-30T03:32:42;20.65;;;10.98;;
43154;SDS011;34212;51.018;13.586;2024-01-30T03:37:44;22.52;;;11.82;;
43154;SDS011;34212;51.018;13.586;2024-01-30T03:42:45;20.90;;;11.60;;
43154;SDS011;34212;51.018;13.586;2024-01-30T03:47:47;20.92;;;10.82;;
43154;SDS011;34212;51.018;13.586;2024-01-30T03:52:48;18.40;;;10.00;;
43154;SDS011;34212;51.018;13.586;2024-01-30T03:57:50;14.73;;;9.98;;
43154;SDS011;34212;51.018;13.586;2024-01-30T04:02:51;16.42;;;9.50;;
43154;SDS011;34212;51.018;13.586;2024-01-30T04:07:53;23.08;;;11.55;;
43154;SDS011;34212;51.018;13.586;2024-01-30T04:12:54;18.23;;;11.52;;
43154;SDS011;34212;51.018;13.586;2024-01-30T04:17:59;21.83;;;12.05;;
43154;SDS011;34212;51.018;13.586;2024-01-30T04:23:01;22.20;;;12.32;;
43154;SDS011;34212;51.018;13.586;2024-01-30T04:28:02;21.98;;;12.70;;
43154;SDS011;34212;51.018;13.586;2024-01-30T04:33:05;17.45;;;10.77;;
43154;SDS011;34212;51.018;13.586;2024-01-30T04:38:06;19.98;;;10.93;;
43154;SDS011;34212;51.018;13.586;2024-01-30T04:43:08;19.38;;;12.00;;
43154;SDS011;34212;51.018;13.586;2024-01-30T04:48:09;15.55;;;10.88;;
43154;SDS011;34212;51.018;13.586;2024-01-30T04:53:11;18.65;;;11.50;;
43154;SDS011;34212;51.018;13.586;2024-01-30T04:58:12;18.42;;;11.18;;
43154;SDS011;34212;51.018;13.586;2024-01-30T05:03:14;18.88;;;12.23;;
43154;SDS011;34212;51.018;13.586;2024-01-30T05:08:15;19.25;;;11.43;;
43154;SDS011;34212;51.018;13.586;2024-01-30T05:13:17;20.38;;;10.93;;
43154;SDS011;34212;51.018;13.586;2024-01-30T05:18:18;17.30;;;11.27;;
43154;SDS011;34212;51.018;13.586;2024-01-30T05:23:20;18.73;;;10.68;;
43154;SDS011;34212;51.018;13.586;2024-01-30T05:28:21;17.60;;;11.07;;
43154;SDS011;34212;51.018;13.586;2024-01-30T05:33:23;18.15;;;11.05;;
43154;SDS011;34212;51.018;13.586;2024-01-30T05:38:25;22.30;;;11.57;;
43154;SDS011;34212;51.018;13.586;2024-01-30T05:43:27;19.42;;;11.57;;
43154;SDS011;34212;51.018;13.586;2024-01-30T05:48:28;19.55;;;11.70;;
43154;SDS011;34212;51.018;13.586;2024-01-30T05:53:30;21.08;;;12.88;;
43154;SDS011;34212;51.018;13.586;2024-01-30T05:58:32;20.63;;;11.73;;
43154;SDS011;34212;51.018;13.586;2024-01-30T06:03:33;21.63;;;12.23;;
43154;SDS011;34212;51.018;13.586;2024-01-30T06:08:35;17.88;;;11.30;;
43154;SDS011;34212;51.018;13.586;2024-01-30T06:13:36;22.70;;;12.50;;
43154;SDS011;34212;51.018;13.586;2024-01-30T06:18:38;21.42;;;12.57;;
43154;SDS011;34212;51.018;13.586;2024-01-30T06:23:39;19.98;;;12.90;;
43154;SDS011;34212;51.018;13.586;2024-01-30T06:28:41;22.15;;;13.15;;
43154;SDS011;34212;51.018;13.586;2024-01-30T06:33:42;21.98;;;13.05;;
43154;SDS011;34212;51.018;13.586;2024-01-30T06:38:44;27.48;;;12.27;;
43154;SDS011;34212;51.018;13.586;2024-01-30T06:43:46;23.27;;;13.35;;
43154;SDS011;34212;51.018;13.586;2024-01-30T06:48:47;24.40;;;12.82;;
43154;SDS011;34212;51.018;13.586;2024-01-30T06:53:49;20.42;;;12.45;;
43154;SDS011;34212;51.018;13.586;2024-01-30T06:58:51;25.98;;;11.88;;
43154;SDS011;34212;51.018;13.586;2024-01-30T07:03:53;28.40;;;14.02;;
43154;SDS011;34212;51.018;13.586;2024-01-30T07:08:55;20.88;;;12.68;;
43154;SDS011;34212;51.018;13.586;2024-01-30T07:13:56;18.50;;;11.30;;
43154;SDS011;34212;51.018;13.586;2024-01-30T07:18:58;23.70;;;12.52;;
43154;SDS011;34212;51.018;13.586;2024-01-30T07:24:00;18.98;;;10.50;;
43154;SDS011;34212;51.018;13.586;2024-01-30T09:48:50;14.35;;;10.98;;
43154;SDS011;34212;51.018;13.586;2024-01-30T09:53:52;15.17;;;10.60;;
43154;SDS011;34212;51.018;13.586;2024-01-30T09:58:55;15.30;;;10.48;;
43154;SDS011;34212;51.018;13.586;2024-01-30T10:03:56;14.93;;;10.18;;
43154;SDS011;34212;51.018;13.586;2024-01-30T10:08:58;14.77;;;10.73;;
43154;SDS011;34212;51.018;13.586;2024-01-30T10:14:00;17.17;;;10.50;;
43154;SDS011;34212;51.018;13.586;2024-01-30T10:19:01;22.05;;;9.40;;
43154;SDS011;34212;51.018;13.586;2024-01-30T10:24:04;17.70;;;9.00;;
43154;SDS011;34212;51.018;13.586;2024-01-30T10:29:05;12.95;;;8.82;;
43154;SDS011;34212;51.018;13.586;2024-01-30T10:34:07;16.13;;;9.15;;
43154;SDS011;34212;51.018;13.586;2024-01-30T10:39:23;15.32;;;9.25;;
43154;SDS011;34212;51.018;13.586;2024-01-30T10:44:25;16.07;;;10.87;;
43154;SDS011;34212;51.018;13.586;2024-01-30T10:49:30;16.10;;;10.10;;
43154;SDS011;34212;51.018;13.586;2024-01-30T10:54:32;18.95;;;9.40;;
43154;SDS011;34212;51.018;13.586;2024-01-30T10:59:36;15.80;;;10.25;;
43154;SDS011;34212;51.018;13.586;2024-01-30T11:04:40;18.33;;;10.32;;
43154;SDS011;34212;51.018;13.586;2024-01-30T11:09:52;12.82;;;8.60;;
43154;SDS011;34212;51.018;13.586;2024-01-30T11:15:28;16.17;;;9.03;;
43154;SDS011;34212;51.018;13.586;2024-01-30T11:20:25;16.33;;;9.50;;
43154;SDS011;34212;51.018;13.586;2024-01-30T11:25:28;13.27;;;9.05;;
43154;SDS011;34212;51.018;13.586;2024-01-30T11:30:32;14.25;;;9.20;;
43154;SDS011;34212;51.018;13.586;2024-01-30T11:35:40;14.07;;;9.32;;
43154;SDS011;34212;51.018;13.586;2024-01-30T11:40:43;17.90;;;9.65;;
43154;SDS011;34212;51.018;13.586;2024-01-30T11:45:45;13.55;;;8.55;;
43154;SDS011;34212;51.018;13.586;2024-01-30T11:50:48;14.07;;;9.38;;
43154;SDS011;34212;51.018;13.586;2024-01-30T11:55:50;12.90;;;8.95;;
43154;SDS011;34212;51.018;13.586;2024-01-30T12:00:53;17.50;;;9.45;;
43154;SDS011;34212;51.018;13.586;2024-01-30T12:05:57;12.90;;;9.07;;
43154;SDS011;34212;51.018;13.586;2024-01-30T12:11:06;14.15;;;9.77;;
43154;SDS011;34212;51.018;13.586;2024-01-30T14:19:54;17.40;;;11.15;;
43154;SDS011;34212;51.018;13.586;2024-01-30T15:42:05;17.27;;;11.35;;
43154;SDS011;34212;51.018;13.586;2024-01-30T15:47:07;22.17;;;11.77;;
43154;SDS011;34212;51.018;13.586;2024-01-30T15:52:09;20.58;;;11.80;;
43154;SDS011;34212;51.018;13.586;2024-01-30T15:57:30;18.10;;;11.60;;
43154;SDS011;34212;51.018;13.586;2024-01-30T16:07:37;18.88;;;12.23;;
43154;SDS011;34212;51.018;13.586;2024-01-30T16:12:40;18.13;;;11.45;;
43154;SDS011;34212;51.018;13.586;2024-01-30T16:17:46;19.55;;;11.75;;
43154;SDS011;34212;51.018;13.586;2024-01-30T16:22:49;24.60;;;13.17;;
43154;SDS011;34212;51.018;13.586;2024-01-30T16:27:56;20.13;;;11.73;;
43154;SDS011;34212;51.018;13.586;2024-01-30T16:33:11;20.90;;;13.57;;
43154;SDS011;34212;51.018;13.586;2024-01-30T16:38:13;21.63;;;13.10;;
43154;SDS011;34212;51.018;13.586;2024-01-30T16:43:15;25.45;;;15.10;;
43154;SDS011;34212;51.018;13.586;2024-01-30T16:48:17;23.20;;;13.18;;
43154;SDS011;34212;51.018;13.586;2024-01-30T16:53:22;24.05;;;15.48;;
43154;SDS011;34212;51.018;13.586;2024-01-30T16:58:23;22.25;;;13.73;;
43154;SDS011;34212;51.018;13.586;2024-01-30T17:03:25;23.90;;;14.60;;
43154;SDS011;34212;51.018;13.586;2024-01-30T17:08:27;20.15;;;12.75;;
43154;SDS011;34212;51.018;13.586;2024-01-30T17:13:29;23.15;;;13.65;;
43154;SDS011;34212;51.018;13.586;2024-01-30T17:18:30;22.77;;;13.18;;
43154;SDS011;34212;51.018;13.586;2024-01-30T17:23:32;21.58;;;13.30;;
43154;SDS011;34212;51.018;13.586;2024-01-30T17:28:35;24.45;;;14.57;;
43154;SDS011;34212;51.018;13.586;2024-01-30T17:33:37;23.35;;;14.07;;
43154;SDS011;34212;51.018;13.586;2024-01-30T17:38:39;26.85;;;13.75;;
43154;SDS011;34212;51.018;13.586;2024-01-30T17:43:41;23.55;;;13.32;;
43154;SDS011;34212;51.018;13.586;2024-01-30T17:48:42;27.80;;;15.20;;
43154;SDS011;34212;51.018;13.586;2024-01-30T17:53:47;22.75;;;13.35;;
43154;SDS011;34212;51.018;13.586;2024-01-30T18:05:44;26.33;;;13.98;;
43154;SDS011;34212;51.018;13.586;2024-01-30T18:10:45;27.42;;;14.55;;
43154;SDS011;34212;51.018;13.586;2024-01-30T18:15:47;22.05;;;14.18;;
43154;SDS011;34212;51.018;13.586;2024-01-30T18:20:49;25.30;;;15.13;;
43154;SDS011;34212;51.018;13.586;2024-01-30T18:25:50;22.75;;;14.07;;
43154;SDS011;34212;51.018;13.586;2024-01-30T18:31:00;27.83;;;16.85;;
43154;SDS011;34212;51.018;13.586;2024-01-30T18:36:02;25.55;;;15.18;;
43154;SDS011;34212;51.018;13.586;2024-01-30T18:41:49;24.77;;;14.60;;
43154;SDS011;34212;51.018;13.586;2024-01-30T18:46:50;29.00;;;16.23;;
43154;SDS011;34212;51.018;13.586;2024-01-30T18:51:54;24.20;;;14.18;;
43154;SDS011;34212;51.018;13.586;2024-01-30T18:56:56;22.58;;;14.20;;
43154;SDS011;34212;51.018;13.586;2024-01-30T19:01:58;26.80;;;15.45;;
43154;SDS011;34212;51.018;13.586;2024-01-30T19:07:00;29.63;;;18.42;;
43154;SDS011;34212;51.018;13.586;2024-01-30T19:12:01;31.70;;;18.77;;
43154;SDS011;34212;51.018;13.586;2024-01-30T19:18:18;27.98;;;16.92;;
43154;SDS011;34212;51.018;13.586;2024-01-30T19:23:19;29.58;;;16.05;;
43154;SDS011;34212;51.018;13.586;2024-01-30T19:28:25;28.27;;;15.75;;
43154;SDS011;34212;51.018;13.586;2024-01-30T19:33:30;45.47;;;27.98;;
43154;SDS011;34212;51.018;13.586;2024-01-30T19:38:31;43.05;;;27.17;;
43154;SDS011;34212;51.018;13.586;2024-01-30T19:43:33;28.25;;;15.95;;
43154;SDS011;34212;51.018;13.586;2024-01-30T19:48:35;26.17;;;15.98;;
43154;SDS011;34212;51.018;13.586;2024-01-30T19:53:37;23.60;;;14.20;;
43154;SDS011;34212;51.018;13.586;2024-01-30T19:58:39;24.65;;;14.32;;
43154;SDS011;34212;51.018;13.586;2024-01-30T20:03:42;23.90;;;12.53;;
43154;SDS011;34212;51.018;13.586;2024-01-30T20:08:43;12.93;;;8.25;;
43154;SDS011;34212;51.018;13.586;2024-01-30T20:13:45;9.48;;;5.68;;
43154;SDS011;34212;51.018;13.586;2024-01-30T20:18:46;7.03;;;4.40;;
43154;SDS011;34212;51.018;13.586;2024-01-30T20:23:48;7.35;;;3.83;;
43154;SDS011;34212;51.018;13.586;2024-01-30T20:28:51;9.60;;;4.50;;
43154;SDS011;34212;51.018;13.586;2024-01-30T20:33:55;8.48;;;4.70;;
43154;SDS011;34212;51.018;13.586;2024-01-30T20:38:57;7.32;;;4.47;;
43154;SDS011;34212;51.018;13.586;2024-01-30T20:43:58;8.60;;;5.13;;
43154;SDS011;34212;51.018;13.586;2024-01-30T20:49:00;6.22;;;4.10;;
43154;SDS011;34212;51.018;13.586;2024-01-30T20:54:02;5.78;;;4.20;;
43154;SDS011;34212;51.018;13.586;2024-01-30T20:59:04;8.90;;;4.25;;
43154;SDS011;34212;51.018;13.586;2024-01-30T21:04:06;6.47;;;4.47;;
43154;SDS011;34212;51.018;13.586;2024-01-30T21:09:07;6.80;;;4.20;;
43154;SDS011;34212;51.018;13.586;2024-01-30T21:14:09;7.95;;;4.63;;
43154;SDS011;34212;51.018;13.586;2024-01-30T21:19:14;10.75;;;5.35;;
43154;SDS011;34212;51.018;13.586;2024-01-30T21:24:16;10.30;;;5.50;;
43154;SDS011;34212;51.018;13.586;2024-01-30T21:29:17;9.02;;;4.70;;
43154;SDS011;34212;51.018;13.586;2024-01-30T21:34:19;10.77;;;4.50;;
43154;SDS011;34212;51.018;13.586;2024-01-30T21:39:21;10.85;;;4.78;;
43154;SDS011;34212;51.018;13.586;2024-01-30T21:44:22;11.70;;;4.88;;
43154;SDS011;34212;51.018;13.586;2024-01-30T21:49:24;10.88;;;4.70;;
43154;SDS011;34212;51.018;13.586;2024-01-30T21:54:25;11.07;;;5.18;;
43154;SDS011;34212;51.018;13.586;2024-01-30T21:59:27;9.93;;;4.88;;
43154;SDS011;34212;51.018;13.586;2024-01-30T22:04:28;10.15;;;5.18;;
43154;SDS011;34212;51.018;13.586;2024-01-30T22:09:30;14.23;;;5.75;;
43154;SDS011;34212;51.018;13.586;2024-01-30T22:14:32;11.20;;;5.50;;
43154;SDS011;34212;51.018;13.586;2024-01-30T22:19:36;12.13;;;5.63;;
43154;SDS011;34212;51.018;13.586;2024-01-30T22:24:38;10.70;;;5.97;;
43154;SDS011;34212;51.018;13.586;2024-01-30T22:29:39;9.77;;;6.15;;
43154;SDS011;34212;51.018;13.586;2024-01-30T22:34:42;6.32;;;4.50;;
43154;SDS011;34212;51.018;13.586;2024-01-30T22:39:44;12.23;;;5.80;;
43154;SDS011;34212;51.018;13.586;2024-01-30T22:44:46;6.95;;;4.78;;
43154;SDS011;34212;51.018;13.586;2024-01-30T22:49:47;8.80;;;5.57;;
43154;SDS011;34212;51.018;13.586;2024-01-30T22:54:49;8.90;;;5.25;;
43154;SDS011;34212;51.018;13.586;2024-01-30T22:59:50;8.27;;;5.28;;
43154;SDS011;34212;51.018;13.586;2024-01-30T23:04:52;8.63;;;5.50;;
43154;SDS011;34212;51.018;13.586;2024-01-30T23:09:53;8.57;;;5.13;;
43154;SDS011;34212;51.018;13.586;2024-01-30T23:14:55;9.38;;;5.10;;
43154;SDS011;34212;51.018;13.586;2024-01-30T23:25:00;9.02;;;5.30;;
43154;SDS011;34212;51.018;13.586;2024-01-30T23:30:02;14.07;;;5.82;;
43154;SDS011;34212;51.018;13.586;2024-01-30T23:35:04;8.27;;;5.18;;
43154;SDS011;34212;51.018;13.586;2024-01-30T23:40:15;7.40;;;4.95;;
43154;SDS011;34212;51.018;13.586;2024-01-30T23:45:17;8.38;;;5.00;;
43154;SDS011;34212;51.018;13.586;2024-01-30T23:50:18;8.38;;;5.10;;
43154;SDS011;34212;51.018;13.586;2024-01-30T23:55:20;11.23;;;5.45;;
